Gunnison Bend Reservoir




Date Hourly Average Reservoir Capacity (AF) Canal Flow (cfs) Battery Voltage (V) Reservoir Height (ft) Gate Height 1 (ft) Gate Height 2 (ft)
07/01/2018 2,436 136.20 13.36 9.38 1.41 2.66
07/02/2018 2,546 129.10 13.28 9.58 0.84 2.65
07/03/2018 2,734 103.70 13.26 9.92 0.23 2.20
07/04/2018 2,750 100.70 13.31 9.95 0.23 2.09
07/05/2018 2,809 73.17 13.30 10.05 0.23 1.35
07/06/2018 2,900 61.50 13.25 10.20 0.23 1.10
07/07/2018 2,876 61.99 13.23 10.16 0.23 1.13
07/08/2018 2,839 58.40 13.19 10.10 0.23 1.02
07/09/2018 2,845 58.95 13.18 10.11 0.23 1.07
07/10/2018 2,900 62.31 13.21 10.20 0.23 1.13
07/11/2018 2,894 61.93 13.24 10.19 0.23 1.10
07/12/2018 2,870 61.66 13.23 10.15 0.23 1.09
07/13/2018 2,821 61.25 13.22 10.07 0.23 1.09
07/14/2018 2,845 60.89 13.23 10.11 0.23 1.10
07/15/2018 2,912 60.90 13.23 10.22 0.23 1.10
07/16/2018 2,912 60.81 13.23 10.22 0.23 1.09
07/17/2018 2,882 47.12 13.18 10.17 0.23 0.80
07/18/2018 2,839 44.31 13.21 10.10 0.23 0.75
07/19/2018 2,833 33.18 13.20 10.09 0.23 0.54
07/20/2018 2,767 29.59 13.17 9.98 0.23 0.49
07/21/2018 2,739 20.57 13.24 9.93 0.23 0.33
07/22/2018 2,809 1.71 13.16 10.05 0.11 0.03
07/23/2018 2,888 5.99 13.26 10.18 0.22 0.03
07/24/2018 2,894 25.62 13.23 10.19 0.53 0.03
07/25/2018 2,906 53.12 13.16 10.21 0.99 0.03
07/26/2018 2,815 84.20 13.20 10.06 1.72 0.03
07/27/2018 2,668 95.10 13.22 9.80 2.01 0.03
07/28/2018 2,629 94.90 13.17 9.73 2.01 0.03
07/29/2018 2,579 94.30 13.25 9.64 2.01 0.03
07/30/2018 2,557 88.30 13.22 9.60 1.79 0.03
07/31/2018 2,657 32.30 13.21 9.78 0.59 0.04
Average 63.35
Maximum 136.20
Minimum 1.71
Total Volume (AF) 3,894.16